createdAt,value
2023-05-11T00:01:19.451Z,20.23
2023-05-11T00:05:28.143Z,19.07
2023-05-11T00:09:56.181Z,17.43
2023-05-11T00:14:04.885Z,20.20
2023-05-11T00:18:13.622Z,21.67
2023-05-11T00:22:22.196Z,23.07
2023-05-11T00:26:30.823Z,23.23
2023-05-11T00:30:41.678Z,20.30
2023-05-11T00:34:50.296Z,21.17
2023-05-11T00:38:58.899Z,26.37
2023-05-11T00:43:07.696Z,22.07
2023-05-11T00:47:16.573Z,22.63
2023-05-11T00:51:25.437Z,20.47
2023-05-11T00:55:34.135Z,23.20
2023-05-11T00:59:42.976Z,35.73
2023-05-11T01:03:51.707Z,23.27
2023-05-11T01:08:03.341Z,27.97
2023-05-11T01:12:35.903Z,26.37
2023-05-11T01:16:49.984Z,22.77
2023-05-11T01:21:01.870Z,22.93
2023-05-11T01:25:28.816Z,23.50
2023-05-11T01:29:46.092Z,23.97
2023-05-11T01:34:00.241Z,23.63
2023-05-11T01:38:12.006Z,23.00
2023-05-11T01:42:23.817Z,25.50
2023-05-11T01:46:51.899Z,27.47
2023-05-11T01:51:03.287Z,18.30
2023-05-11T01:55:12.246Z,20.60
2023-05-11T01:59:21.481Z,22.93
2023-05-11T02:03:32.555Z,20.37
2023-05-11T02:07:43.618Z,23.17
2023-05-11T02:11:54.266Z,19.93
2023-05-11T02:16:04.298Z,19.17
2023-05-11T02:20:14.364Z,22.20
2023-05-11T02:24:43.279Z,19.20
2023-05-11T02:28:51.876Z,15.57
2023-05-11T02:33:04.587Z,20.60
2023-05-11T02:37:16.238Z,19.63
2023-05-11T02:41:27.931Z,18.03
2023-05-11T02:45:37.793Z,17.47
2023-05-11T02:49:51.103Z,20.70
2023-05-11T02:54:01.648Z,17.20
2023-05-11T02:58:10.699Z,15.03
2023-05-11T03:02:19.494Z,18.00
2023-05-11T03:06:28.549Z,23.43
2023-05-11T03:10:43.906Z,19.63
2023-05-11T03:14:54.641Z,22.77
2023-05-11T03:19:04.191Z,18.97
2023-05-11T03:23:13.947Z,21.10
2023-05-11T03:27:23.443Z,17.47
2023-05-11T03:31:32.273Z,22.67
2023-05-11T03:35:43.240Z,22.60
2023-05-11T03:39:54.879Z,23.97
2023-05-11T03:44:06.760Z,27.57
2023-05-11T03:48:17.726Z,28.50
2023-05-11T03:52:26.865Z,23.67
2023-05-11T03:56:41.287Z,19.83
2023-05-11T04:00:50.421Z,27.60
2023-05-11T04:04:59.072Z,30.80
2023-05-11T04:09:07.648Z,23.83
2023-05-11T04:13:16.250Z,27.00
2023-05-11T04:17:25.112Z,26.20
2023-05-11T04:21:33.776Z,24.83
2023-05-11T04:25:42.324Z,33.57
2023-05-11T04:29:50.925Z,24.17
2023-05-11T04:33:59.570Z,27.50
2023-05-11T04:38:08.188Z,30.33
2023-05-11T04:42:16.945Z,26.77
2023-05-11T04:46:25.712Z,35.30
2023-05-11T04:50:34.717Z,29.60
2023-05-11T04:54:43.525Z,26.63
2023-05-11T04:58:52.178Z,27.40
2023-05-11T05:03:00.942Z,31.50
2023-05-11T05:07:10.667Z,35.17
2023-05-11T05:11:20.531Z,34.80
2023-05-11T05:15:29.197Z,30.00
2023-05-11T05:19:37.860Z,30.57
2023-05-11T05:23:46.420Z,33.00
2023-05-11T05:27:55.038Z,32.10
2023-05-11T05:32:03.749Z,26.00
2023-05-11T05:36:12.366Z,33.03
2023-05-11T05:40:21.134Z,37.10
2023-05-11T05:44:30.038Z,37.37
2023-05-11T05:48:39.667Z,29.00
2023-05-11T05:52:48.281Z,33.63
2023-05-11T05:57:16.207Z,33.73
2023-05-11T06:01:37.358Z,37.63
2023-05-11T06:05:45.980Z,32.50
2023-05-11T06:09:54.890Z,28.50
2023-05-11T06:14:03.723Z,32.83
2023-05-11T06:18:12.616Z,43.17
2023-05-11T06:22:21.388Z,32.70
2023-05-11T06:26:30.352Z,34.73
2023-05-11T06:30:39.569Z,32.03
2023-05-11T06:34:48.143Z,29.73
2023-05-11T06:39:16.131Z,27.60
2023-05-11T06:43:24.811Z,30.87
2023-05-11T06:47:33.457Z,37.30
2023-05-11T06:51:42.382Z,28.73
2023-05-11T06:55:51.079Z,42.00
2023-05-11T06:59:59.687Z,31.30
2023-05-11T07:04:08.577Z,33.07
2023-05-11T07:08:17.238Z,29.50
2023-05-11T07:12:26.181Z,29.10
2023-05-11T07:16:36.988Z,28.23
2023-05-11T07:20:47.360Z,30.40
2023-05-11T07:24:56.014Z,28.37
2023-05-11T07:29:04.579Z,33.10
2023-05-11T07:33:13.204Z,24.90
2023-05-11T07:37:21.814Z,27.02
2023-05-11T07:41:30.962Z,29.23
2023-05-11T07:45:40.714Z,34.43
2023-05-11T07:49:50.451Z,27.73
2023-05-11T07:53:59.380Z,27.13
2023-05-11T07:58:08.121Z,28.10
2023-05-11T08:02:36.320Z,24.00
2023-05-11T08:06:45.336Z,28.00
2023-05-11T08:10:54.063Z,32.20
2023-05-11T08:15:02.802Z,35.10
2023-05-11T08:19:13.031Z,29.77
2023-05-11T08:23:21.701Z,34.03
2023-05-11T08:27:30.427Z,34.80
2023-05-11T08:31:40.505Z,35.43
2023-05-11T08:35:49.430Z,36.57
2023-05-11T08:39:58.162Z,37.37
2023-05-11T08:44:08.018Z,30.43
2023-05-11T08:48:36.616Z,32.43
2023-05-11T08:52:57.393Z,30.07
2023-05-11T08:57:07.176Z,29.97
2023-05-11T09:01:18.279Z,29.63
2023-05-11T09:05:29.263Z,29.13
2023-05-11T09:09:39.629Z,30.93
2023-05-11T09:13:48.865Z,28.33
2023-05-11T09:17:57.638Z,27.80
2023-05-11T09:22:07.498Z,28.43
2023-05-11T09:26:18.230Z,27.57
2023-05-11T09:30:27.712Z,27.17
2023-05-11T09:34:43.005Z,27.20
2023-05-11T09:38:46.781Z,27.07
2023-05-11T09:43:22.750Z,26.83
2023-05-11T09:47:34.429Z,25.57
2023-05-11T09:51:57.945Z,37.00
2023-05-11T09:56:07.261Z,31.63
2023-05-11T10:00:35.790Z,33.53
2023-05-11T10:04:45.016Z,29.93
2023-05-11T10:08:55.111Z,26.57
2023-05-11T10:13:04.526Z,27.30
2023-05-11T10:17:15.095Z,32.00
2023-05-11T10:21:24.418Z,35.57
2023-05-11T10:25:53.349Z,24.53
2023-05-11T10:30:03.889Z,30.83
2023-05-11T10:34:13.561Z,25.27
2023-05-11T10:38:22.673Z,31.13
2023-05-11T10:42:51.208Z,28.70
2023-05-11T10:47:12.365Z,32.20
2023-05-11T10:51:57.611Z,32.90
2023-05-11T10:56:33.104Z,28.10
2023-05-11T11:00:53.468Z,33.53
2023-05-11T11:05:04.016Z,32.50
2023-05-11T11:09:17.221Z,23.93
2023-05-11T11:13:25.847Z,23.57
2023-05-11T11:17:37.849Z,28.37
2023-05-11T11:21:48.247Z,29.70
2023-05-11T11:25:57.359Z,31.90
2023-05-11T11:30:19.927Z,31.57
2023-05-11T11:34:32.264Z,25.70
2023-05-11T11:39:01.106Z,29.23
2023-05-11T11:43:20.498Z,26.47
2023-05-11T11:47:29.806Z,23.47
2023-05-11T11:51:40.797Z,26.80
2023-05-11T11:55:52.113Z,23.03
2023-05-11T12:00:06.983Z,26.23
2023-05-11T12:04:24.338Z,29.40
2023-05-11T12:08:33.452Z,29.00
2023-05-11T12:12:43.827Z,28.60
2023-05-11T12:17:08.765Z,27.40
2023-05-11T12:21:21.712Z,22.00
2023-05-11T12:25:30.354Z,27.43
2023-05-11T12:29:41.410Z,24.05
2023-05-11T12:33:52.171Z,26.00
2023-05-11T12:38:05.407Z,23.13
2023-05-11T12:42:17.068Z,24.93
2023-05-11T12:46:38.420Z,27.02
2023-05-11T12:50:48.005Z,25.83
2023-05-11T12:55:00.091Z,24.20
2023-05-11T12:59:11.523Z,25.73
2023-05-11T13:03:31.430Z,23.53
2023-05-11T13:07:40.312Z,24.03
2023-05-11T13:11:48.922Z,25.00
2023-05-11T13:15:57.609Z,26.00
2023-05-11T13:20:21.662Z,34.70
2023-05-11T13:24:31.068Z,21.90
2023-05-11T13:28:41.574Z,24.03
2023-05-11T13:32:50.557Z,24.57
2023-05-11T13:37:12.341Z,22.70
2023-05-11T13:41:21.092Z,22.50
2023-05-11T13:45:30.075Z,23.23
2023-05-11T13:49:38.711Z,25.50
2023-05-11T13:53:47.689Z,20.30
2023-05-11T13:57:57.002Z,23.90
2023-05-11T14:02:05.933Z,21.97
2023-05-11T14:06:14.798Z,22.90
2023-05-11T14:10:24.963Z,21.90
2023-05-11T14:14:33.696Z,18.87
2023-05-11T14:18:42.741Z,21.80
2023-05-11T14:22:51.574Z,25.70
2023-05-11T14:27:19.658Z,27.47
2023-05-11T14:31:28.910Z,23.13
2023-05-11T14:35:39.652Z,23.83
2023-05-11T14:39:47.800Z,21.40
2023-05-11T14:43:56.461Z,24.57
2023-05-11T14:48:05.460Z,17.30
2023-05-11T14:52:14.126Z,20.53
2023-05-11T14:56:23.515Z,13.73
2023-05-11T15:00:32.769Z,15.20
2023-05-11T15:04:45.655Z,12.07
2023-05-11T15:08:54.343Z,11.60
2023-05-11T15:13:02.969Z,11.60
2023-05-11T15:17:11.700Z,11.77
2023-05-11T15:21:20.344Z,13.97
2023-05-11T15:25:29.053Z,13.87
2023-05-11T15:29:37.688Z,7.13
2023-05-11T15:33:46.380Z,4.17
2023-05-11T15:37:55.155Z,3.90
2023-05-11T15:42:23.047Z,5.80
2023-05-11T15:46:31.693Z,3.83
2023-05-11T15:50:40.595Z,3.43
2023-05-11T15:54:49.425Z,4.13
2023-05-11T15:58:58.461Z,4.27
2023-05-11T16:03:07.471Z,5.40
2023-05-11T16:07:16.724Z,3.40
2023-05-11T16:11:26.035Z,5.03
2023-05-11T16:15:35.533Z,5.97
2023-05-11T16:19:44.288Z,4.10
2023-05-11T16:23:54.430Z,3.40
2023-05-11T16:28:03.480Z,4.53
2023-05-11T16:32:19.760Z,4.13
2023-05-11T16:36:30.491Z,3.70
2023-05-11T16:40:39.182Z,5.23
2023-05-11T16:44:47.857Z,3.63
2023-05-11T16:48:58.568Z,4.30
2023-05-11T16:53:06.943Z,5.37
2023-05-11T16:57:15.530Z,6.40
2023-05-11T17:01:24.657Z,4.97
2023-05-11T17:05:33.221Z,4.57
2023-05-11T17:09:42.088Z,5.43
2023-05-11T17:13:51.319Z,4.30
2023-05-11T17:18:00.061Z,4.40
2023-05-11T17:22:09.273Z,5.47
2023-05-11T17:26:18.287Z,6.07
2023-05-11T17:30:40.018Z,3.50
2023-05-11T17:34:38.311Z,4.03
2023-05-11T17:38:47.168Z,6.23
2023-05-11T17:42:55.889Z,4.90
2023-05-11T17:47:05.553Z,5.40
2023-05-11T17:51:14.686Z,5.93
2023-05-11T17:55:23.316Z,4.73
2023-05-11T17:59:32.251Z,4.60
2023-05-11T18:03:41.558Z,7.03
2023-05-11T18:07:51.533Z,4.40
2023-05-11T18:12:02.257Z,3.87
2023-05-11T18:16:30.405Z,4.37
2023-05-11T18:20:39.382Z,5.30
2023-05-11T18:24:48.084Z,4.33
2023-05-11T18:28:56.984Z,4.10
2023-05-11T18:33:05.730Z,5.47
2023-05-11T18:37:14.892Z,4.63
2023-05-11T18:41:23.701Z,6.10
2023-05-11T18:45:34.626Z,5.50
2023-05-11T18:49:43.257Z,5.43
2023-05-11T18:53:52.230Z,5.73
2023-05-11T18:58:01.560Z,5.73
2023-05-11T19:02:10.854Z,7.30
2023-05-11T19:06:19.497Z,5.43
2023-05-11T19:10:28.224Z,7.30
2023-05-11T19:14:37.514Z,8.47
2023-05-11T19:18:46.217Z,6.03
2023-05-11T19:22:54.936Z,6.23
2023-05-11T19:27:07.874Z,7.57
2023-05-11T19:31:14.955Z,6.10
2023-05-11T19:35:23.684Z,5.80
2023-05-11T19:39:33.173Z,10.20
2023-05-11T19:43:41.959Z,7.20
2023-05-11T19:47:51.043Z,10.13
2023-05-11T19:52:03.114Z,6.10
2023-05-11T19:56:13.378Z,6.97
2023-05-11T20:00:23.852Z,6.50
2023-05-11T20:04:36.177Z,6.93
2023-05-11T20:08:51.861Z,7.90
2023-05-11T20:13:03.295Z,8.70
2023-05-11T20:17:18.560Z,7.03
2023-05-11T20:21:29.522Z,6.53
2023-05-11T20:25:39.889Z,10.00
2023-05-11T20:30:10.022Z,7.40
2023-05-11T20:34:21.689Z,9.77
2023-05-11T20:38:32.333Z,8.27
2023-05-11T20:42:41.014Z,12.87
2023-05-11T20:46:52.809Z,8.90
2023-05-11T20:51:07.140Z,11.90
2023-05-11T20:55:18.242Z,12.83
2023-05-11T21:03:47.371Z,12.60
2023-05-11T21:07:59.936Z,11.10
2023-05-11T21:12:09.085Z,9.10
2023-05-11T21:16:18.798Z,12.00
2023-05-11T21:20:27.584Z,18.00
2023-05-11T21:24:38.590Z,16.00
2023-05-11T21:28:49.595Z,16.70
2023-05-11T21:32:58.292Z,13.47
2023-05-11T21:37:07.046Z,12.33
2023-05-11T21:41:18.734Z,13.70
2023-05-11T21:45:27.498Z,15.20
2023-05-11T21:49:36.711Z,14.50
2023-05-11T21:53:45.379Z,13.70
2023-05-11T21:57:54.419Z,15.20
2023-05-11T22:02:03.799Z,14.67
2023-05-11T22:06:12.480Z,15.90
2023-05-11T22:10:21.444Z,16.67
2023-05-11T22:14:31.522Z,13.33
2023-05-11T22:18:40.172Z,14.03
2023-05-11T22:22:48.782Z,15.17
2023-05-11T22:26:57.353Z,15.17
2023-05-11T22:31:05.960Z,18.67
2023-05-11T22:35:14.660Z,17.50
2023-05-11T22:39:23.765Z,18.17
2023-05-11T22:43:32.381Z,14.07
2023-05-11T22:47:41.016Z,14.50
2023-05-11T22:51:49.686Z,12.33
2023-05-11T22:55:59.849Z,17.27
2023-05-11T23:00:11.026Z,18.17
2023-05-11T23:04:19.768Z,14.77
2023-05-11T23:08:28.503Z,12.73
2023-05-11T23:12:37.302Z,20.17
2023-05-11T23:16:45.942Z,19.33
2023-05-11T23:21:01.350Z,14.77
2023-05-11T23:25:29.441Z,15.30
2023-05-11T23:29:38.124Z,14.30
2023-05-11T23:33:47.008Z,12.47
2023-05-11T23:37:55.630Z,16.20
2023-05-11T23:42:04.361Z,14.07
2023-05-11T23:46:12.931Z,13.53
2023-05-11T23:50:21.785Z,19.07
2023-05-11T23:54:30.452Z,10.60
2023-05-11T23:58:40.686Z,12.57
